Time;durP1;ratioP1;P1;durP2;ratioP2;P2;SDS_P1;SDS_P2;PMS_P1;PMS_P2;Temp;Humidity;BMP_temperature;BMP_pressure;BME280_temperature;BME280_humidity;BME280_pressure;Samples;Min_cycle;Max_cycle;Signal;HPM_P1;HPM_P2
2023/12/02 06:00:42;;;;;;;20.98;12.27;;;1.80;88.40;;;;;;4885793;23;20106;-77
2023/12/02 06:02:43;;;;;;;;;;;1.80;88.20;;;;;;4023417;29;20086;-83
2023/12/02 06:04:45;;;;;;;21.98;12.00;;;1.80;88.30;;;;;;4025591;29;19980;-84
2023/12/02 06:06:48;;;;;;;21.55;12.90;;;1.90;88.40;;;;;;4020736;29;20089;-82
2023/12/02 06:08:50;;;;;;;22.98;13.15;;;1.80;88.20;;;;;;4017365;29;20061;-81
2023/12/02 06:10:52;;;;;;;22.88;12.90;;;1.80;88.60;;;;;;4024694;29;20053;-79
2023/12/02 06:12:54;;;;;;;20.50;12.32;;;1.80;88.60;;;;;;4022320;29;20105;-84
2023/12/02 06:14:56;;;;;;;22.70;13.23;;;1.90;88.50;;;;;;4020585;29;20049;-83
2023/12/02 06:16:59;;;;;;;24.17;13.38;;;1.80;88.30;;;;;;4009573;29;20038;-83
2023/12/02 06:19:02;;;;;;;21.15;12.00;;;1.80;88.00;;;;;;4025806;29;20094;-83
2023/12/02 06:21:04;;;;;;;20.65;11.77;;;1.80;88.20;;;;;;4025226;29;20129;-83
2023/12/02 06:23:06;;;;;;;22.55;12.70;;;1.70;87.80;;;;;;4024587;29;20088;-83
2023/12/02 06:25:08;;;;;;;24.67;13.88;;;1.70;88.20;;;;;;4025343;29;20050;-82
2023/12/02 06:27:09;;;;;;;22.52;12.82;;;1.70;88.10;;;;;;4024197;29;20586;-82
2023/12/02 06:29:11;;;;;;;20.42;12.32;;;1.70;88.20;;;;;;4023893;29;20085;-82
2023/12/02 06:31:14;;;;;;;20.50;12.73;;;1.60;88.10;;;;;;4024647;29;20057;-81
2023/12/02 06:33:17;;;;;;;24.42;12.98;;;1.60;88.40;;;;;;4007562;29;20054;-85
2023/12/02 06:35:19;;;;;;;21.52;11.75;;;1.70;88.20;;;;;;4022746;29;20049;-83
2023/12/02 06:37:20;;;;;;;19.92;11.45;;;1.60;87.70;;;;;;4022821;29;20400;-83
2023/12/02 06:39:22;;;;;;;20.08;11.50;;;1.70;87.90;;;;;;4022707;29;20053;-81
2023/12/02 06:41:23;;;;;;;20.13;11.80;;;1.70;88.50;;;;;;4024321;29;20121;-81
2023/12/02 06:43:25;;;;;;;18.98;11.43;;;1.50;87.30;;;;;;4023739;29;20041;-80
2023/12/02 06:45:27;;;;;;;20.10;11.45;;;1.50;88.00;;;;;;4021197;29;20388;-81
2023/12/02 06:47:29;;;;;;;19.08;11.02;;;1.50;87.30;;;;;;4023243;29;20132;-80
2023/12/02 06:49:33;;;;;;;19.05;11.00;;;1.50;87.90;;;;;;4024647;29;20102;-80
2023/12/02 06:51:34;;;;;;;19.63;12.02;;;1.50;88.10;;;;;;4024029;29;20406;-82
2023/12/02 06:53:36;;;;;;;20.10;11.48;;;1.50;87.90;;;;;;4023722;29;20388;-84
2023/12/02 06:55:38;;;;;;;20.23;12.40;;;1.50;87.60;;;;;;4026805;29;20502;-84
2023/12/02 06:57:40;;;;;;;20.00;10.85;;;1.60;87.40;;;;;;4025210;29;20461;-85
2023/12/02 06:59:45;;;;;;;17.50;10.90;;;1.60;87.30;;;;;;4025136;29;20140;-83
2023/12/02 07:01:47;;;;;;;16.58;10.80;;;1.60;87.00;;;;;;4035783;29;20118;-83
2023/12/02 07:03:48;;;;;;;18.92;11.30;;;1.50;87.10;;;;;;4040668;29;20140;-84
2023/12/02 07:05:52;;;;;;;17.48;11.07;;;1.50;87.00;;;;;;4024042;29;20078;-84
2023/12/02 07:07:53;;;;;;;20.35;11.90;;;1.40;87.90;;;;;;4023388;29;20053;-83
2023/12/02 07:09:55;;;;;;;19.58;11.77;;;1.40;87.30;;;;;;4021565;29;20293;-83
2023/12/02 07:11:57;;;;;;;19.10;11.35;;;1.50;87.40;;;;;;4038731;29;20109;-84
2023/12/02 07:14:00;;;;;;;19.50;11.23;;;1.50;88.00;;;;;;4039622;29;20124;-87
2023/12/02 07:16:01;;;;;;;18.85;11.18;;;1.50;87.00;;;;;;4023844;29;20048;-85
2023/12/02 07:18:05;;;;;;;19.42;11.10;;;1.40;87.10;;;;;;4040712;29;20056;-84
2023/12/02 07:20:09;;;;;;;20.33;11.35;;;1.50;87.10;;;;;;4038872;29;20056;-87
2023/12/02 07:22:12;;;;;;;18.45;11.18;;;1.50;87.30;;;;;;4039960;29;20057;-79
2023/12/02 07:24:14;;;;;;;19.58;11.18;;;1.50;87.70;;;;;;4033723;29;20052;-79
2023/12/02 07:26:16;;;;;;;17.83;10.90;;;1.50;88.20;;;;;;4041108;29;20929;-82
2023/12/02 07:28:18;;;;;;;20.58;12.10;;;1.40;88.00;;;;;;4039964;29;20053;-84
2023/12/02 07:30:20;;;;;;;19.48;11.50;;;1.40;88.30;;;;;;4038724;29;20483;-80
2023/12/02 07:32:22;;;;;;;18.88;11.85;;;1.40;88.30;;;;;;4036497;29;20117;-80
2023/12/02 07:34:24;;;;;;;17.77;11.05;;;1.40;87.80;;;;;;4031817;29;20065;-79
2023/12/02 07:36:26;;;;;;;19.42;11.63;;;1.40;88.00;;;;;;4036903;29;20045;-78
2023/12/02 07:38:29;;;;;;;20.42;11.60;;;1.50;87.80;;;;;;4038579;29;20053;-79
2023/12/02 07:40:31;;;;;;;16.65;10.48;;;1.50;87.40;;;;;;4025327;29;20457;-79
2023/12/02 07:42:33;;;;;;;21.13;11.30;;;1.50;87.20;;;;;;4036997;29;20057;-78
2023/12/02 07:44:34;;;;;;;17.10;10.23;;;1.50;87.00;;;;;;4039065;29;20057;-80
2023/12/02 07:46:36;;;;;;;16.27;9.88;;;1.40;86.90;;;;;;4038049;29;20160;-79
2023/12/02 07:48:37;;;;;;;18.15;11.15;;;1.50;86.80;;;;;;4039438;29;20109;-79
2023/12/02 07:50:39;;;;;;;16.40;10.63;;;1.50;86.40;;;;;;4040091;29;20436;-79
2023/12/02 07:52:41;;;;;;;18.15;10.48;;;1.50;86.50;;;;;;4038336;29;20118;-79
2023/12/02 07:54:44;;;;;;;18.10;11.07;;;1.50;86.40;;;;;;4038809;29;20101;-80
2023/12/02 07:56:46;;;;;;;17.83;11.07;;;1.50;85.80;;;;;;4038278;29;20459;-79
2023/12/02 07:58:48;;;;;;;20.23;12.07;;;1.50;86.00;;;;;;4033564;29;20065;-77
2023/12/02 08:00:50;;;;;;;19.33;11.10;;;1.40;86.80;;;;;;4037457;29;20060;-78
2023/12/02 08:02:52;;;;;;;20.30;11.45;;;1.40;86.40;;;;;;4048192;29;20049;-78
2023/12/02 08:04:54;;;;;;;19.17;11.23;;;1.40;85.70;;;;;;4038593;29;20455;-79
2023/12/02 08:06:55;;;;;;;19.75;11.63;;;1.40;86.00;;;;;;4033934;29;20124;-79
2023/12/02 08:08:57;;;;;;;19.95;11.73;;;1.40;85.30;;;;;;4038056;29;20538;-80
2023/12/02 08:11:00;;;;;;;21.02;11.65;;;1.40;85.30;;;;;;4037985;29;20057;-79
2023/12/02 08:13:03;;;;;;;20.38;11.98;;;1.40;85.70;;;;;;4037320;29;20052;-76
2023/12/02 08:15:06;;;;;;;19.45;12.20;;;1.40;85.20;;;;;;4037723;29;20140;-76
2023/12/02 08:17:08;;;;;;;19.92;12.02;;;1.40;85.10;;;;;;4037725;29;20483;-76
2023/12/02 08:19:10;;;;;;;20.90;12.52;;;1.40;84.80;;;;;;4036117;29;20140;-83
2023/12/02 08:21:11;;;;;;;20.42;12.25;;;1.30;84.80;;;;;;4036773;29;20078;-81
2023/12/02 08:23:13;;;;;;;20.80;12.23;;;1.10;84.50;;;;;;4037093;29;20100;-79
2023/12/02 08:25:16;;;;;;;20.55;12.15;;;1.10;84.50;;;;;;4041285;29;20053;-81
2023/12/02 08:27:19;;;;;;;20.05;11.60;;;1.10;84.30;;;;;;4041677;29;20053;-81
2023/12/02 08:29:21;;;;;;;19.75;11.60;;;1.10;84.60;;;;;;4024602;29;20138;-80
2023/12/02 08:31:23;;;;;;;19.55;11.80;;;1.10;84.00;;;;;;4042190;29;20457;-82
2023/12/02 08:33:25;;;;;;;21.17;12.35;;;1.10;84.20;;;;;;4041482;29;20045;-81
2023/12/02 08:35:27;;;;;;;20.90;12.05;;;1.10;84.30;;;;;;4046547;29;20057;-81
2023/12/02 08:37:29;;;;;;;22.00;12.60;;;1.20;84.30;;;;;;4047921;29;20063;-81
2023/12/02 08:39:30;;;;;;;22.52;12.35;;;1.10;84.40;;;;;;4045713;29;20045;-82
2023/12/02 08:41:32;;;;;;;21.52;12.63;;;1.10;84.80;;;;;;4048364;29;20085;-83
2023/12/02 08:43:35;;;;;;;19.02;11.13;;;1.20;85.10;;;;;;4047152;29;20053;-81
2023/12/02 08:45:37;;;;;;;20.40;12.13;;;1.20;84.30;;;;;;4041450;29;20117;-80
2023/12/02 08:47:40;;;;;;;22.00;12.05;;;1.20;84.40;;;;;;4041543;29;20129;-83
2023/12/02 08:49:41;;;;;;;23.83;13.88;;;1.20;84.20;;;;;;4040771;29;20128;-79
2023/12/02 08:51:43;;;;;;;21.17;12.13;;;1.20;84.30;;;;;;4042065;29;20033;-85
2023/12/02 08:53:45;;;;;;;20.05;11.98;;;1.20;83.60;;;;;;4041708;29;20117;-86
2023/12/02 08:55:47;;;;;;;23.05;12.65;;;1.10;84.20;;;;;;4011040;29;20053;-82
2023/12/02 08:57:49;;;;;;;22.70;11.73;;;1.00;84.10;;;;;;4042225;29;20081;-83
2023/12/02 08:59:53;;;;;;;21.80;12.43;;;0.80;84.80;;;;;;4025413;29;20053;-83
2023/12/02 09:01:55;;;;;;;21.70;12.60;;;0.90;85.20;;;;;;4041861;29;20437;-82
2023/12/02 09:03:56;;;;;;;23.05;12.25;;;1.00;85.00;;;;;;4041583;29;20065;-85
2023/12/02 09:05:58;;;;;;;19.80;12.10;;;1.00;85.10;;;;;;4041453;29;20053;-81
2023/12/02 09:08:01;;;;;;;22.10;12.27;;;1.00;85.20;;;;;;4041409;29;20052;-81
2023/12/02 09:10:04;;;;;;;20.35;11.85;;;1.00;85.20;;;;;;4040478;29;20128;-80
2023/12/02 09:12:07;;;;;;;21.27;12.20;;;1.00;84.40;;;;;;4040293;29;20057;-82
2023/12/02 09:14:09;;;;;;;22.48;12.82;;;1.00;84.70;;;;;;4039234;29;20105;-79
2023/12/02 09:16:18;;;;;;;19.63;11.80;;;1.00;84.20;;;;;;4039652;29;20086;-79
2023/12/02 09:18:31;;;;;;;20.63;11.68;;;0.90;84.20;;;;;;4039972;29;20112;-78
2023/12/02 09:20:43;;;;;;;22.08;12.15;;;1.00;84.50;;;;;;4035923;29;20059;-79
2023/12/02 09:22:47;;;;;;;23.15;11.90;;;0.90;84.30;;;;;;4040617;29;20056;-80
2023/12/02 09:24:49;;;;;;;21.10;11.73;;;1.00;84.50;;;;;;4042831;29;20060;-80
2023/12/02 09:26:50;;;;;;;23.02;12.55;;;0.90;84.40;;;;;;4040775;29;20068;-81
2023/12/02 09:28:54;;;;;;;20.38;10.80;;;1.00;84.40;;;;;;4040576;29;20408;-81
2023/12/02 09:31:02;;;;;;;21.63;11.95;;;1.00;84.30;;;;;;4040134;29;20475;-79
2023/12/02 09:33:05;;;;;;;21.75;12.23;;;1.00;83.50;;;;;;4039897;29;20088;-79
2023/12/02 09:35:08;;;;;;;20.65;12.05;;;0.80;83.70;;;;;;4037888;29;20057;-79
2023/12/02 09:37:49;;;;;;;22.38;11.93;;;0.80;84.40;;;;;;4039263;29;20053;-79
2023/12/02 09:40:25;;;;;;;20.00;11.52;;;0.90;84.00;;;;;;4038970;29;20112;-78
2023/12/02 09:42:27;;;;;;;22.65;11.00;;;0.80;83.90;;;;;;4030823;29;20092;-80
2023/12/02 09:44:41;;;;;;;23.95;12.50;;;0.80;83.80;;;;;;4039462;29;20052;-82
2023/12/02 09:46:53;;;;;;;21.42;10.90;;;0.80;83.90;;;;;;4040398;29;20045;-81
2023/12/02 09:49:42;;;;;;;20.48;10.68;;;0.80;83.60;;;;;;4040284;29;20048;-81
2023/12/02 09:51:58;;;;;;;20.90;11.38;;;0.80;83.80;;;;;;4021103;29;20475;-85
2023/12/02 09:54:10;;;;;;;21.73;11.73;;;0.80;83.90;;;;;;4039548;29;20053;-80
2023/12/02 09:56:20;;;;;;;23.48;12.05;;;0.80;84.60;;;;;;4040215;29;20045;-83
2023/12/02 09:58:28;;;;;;;23.35;12.23;;;0.80;84.50;;;;;;4027618;29;20854;-79
2023/12/02 10:00:39;;;;;;;21.25;11.60;;;0.90;84.30;;;;;;4037368;29;20123;-84
2023/12/02 10:02:59;;;;;;;20.55;11.50;;;0.80;84.30;;;;;;4037391;29;20495;-79
2023/12/02 10:05:10;;;;;;;21.70;11.60;;;0.90;84.70;;;;;;4035733;29;20093;-78
2023/12/02 10:07:26;;;;;;;20.42;11.45;;;0.90;84.30;;;;;;4037585;29;20088;-79
2023/12/02 10:09:44;;;;;;;21.75;12.40;;;1.00;84.30;;;;;;4036963;29;20471;-79
2023/12/02 10:11:56;;;;;;;23.45;12.45;;;0.90;84.00;;;;;;4036498;29;20052;-77
2023/12/02 10:14:00;;;;;;;22.63;12.73;;;1.00;84.40;;;;;;4037286;29;20057;-83
2023/12/02 10:16:10;;;;;;;21.38;11.27;;;1.00;84.20;;;;;;4038626;29;20045;-87
2023/12/02 10:18:15;;;;;;;23.27;12.52;;;1.00;84.10;;;;;;4039475;29;20049;-85
2023/12/02 10:20:26;;;;;;;24.95;13.35;;;1.00;84.60;;;;;;4037799;29;20074;-83
2023/12/02 10:22:33;;;;;;;22.98;12.82;;;1.10;85.20;;;;;;4037582;29;20053;-84
2023/12/02 10:24:42;;;;;;;21.23;12.40;;;1.10;84.50;;;;;;4022658;29;20041;-84
2023/12/02 10:26:54;;;;;;;22.95;12.55;;;1.10;84.20;;;;;;4039570;29;20543;-83
2023/12/02 10:29:16;;;;;;;23.63;12.90;;;1.10;84.40;;;;;;4040003;29;20053;-81
2023/12/02 10:31:26;;;;;;;21.95;12.38;;;1.00;83.80;;;;;;4036646;29;20048;-80
2023/12/02 10:33:35;;;;;;;22.95;13.13;;;1.00;83.60;;;;;;4039782;29;20064;-85
2023/12/02 10:35:44;;;;;;;21.00;12.20;;;1.00;83.90;;;;;;4044224;29;20069;-85
2023/12/02 10:37:53;;;;;;;20.25;12.05;;;1.00;83.90;;;;;;4048390;29;20064;-84
2023/12/02 10:39:57;;;;;;;23.25;12.68;;;1.10;83.50;;;;;;4048784;29;20057;-84
2023/12/02 10:42:03;;;;;;;20.30;11.85;;;1.00;83.50;;;;;;4046524;29;20060;-85
2023/12/02 10:44:08;;;;;;;19.75;11.27;;;1.10;83.60;;;;;;4029011;29;20105;-84
2023/12/02 10:46:11;;;;;;;20.52;11.60;;;1.10;83.50;;;;;;4048913;29;20049;-84
2023/12/02 10:48:15;;;;;;;21.88;11.65;;;1.00;82.90;;;;;;4028575;29;20084;-85
2023/12/02 10:50:18;;;;;;;20.38;11.75;;;1.10;83.40;;;;;;4044090;29;20053;-83
2023/12/02 10:52:22;;;;;;;21.02;12.20;;;1.10;83.00;;;;;;4039882;29;20049;-84
2023/12/02 10:54:29;;;;;;;18.58;11.23;;;1.00;83.10;;;;;;4040062;29;20100;-84
2023/12/02 10:56:35;;;;;;;22.77;13.52;;;1.10;83.20;;;;;;4038826;29;20053;-83
2023/12/02 10:58:39;;;;;;;22.70;12.75;;;1.10;83.40;;;;;;4040750;29;20060;-86
2023/12/02 11:00:44;;;;;;;19.63;11.60;;;1.10;83.60;;;;;;4024239;29;20172;-86
2023/12/02 11:02:52;;;;;;;24.15;13.43;;;1.20;83.80;;;;;;4017831;29;20069;-83
2023/12/02 11:05:08;;;;;;;22.05;12.15;;;1.10;84.10;;;;;;4014282;29;20089;-84
2023/12/02 11:07:16;;;;;;;19.20;11.48;;;1.20;83.40;;;;;;4024168;29;20129;-84
2023/12/02 11:09:33;;;;;;;20.45;12.00;;;1.20;82.20;;;;;;4027525;29;20064;-80
2023/12/02 11:11:49;;;;;;;20.48;11.50;;;1.10;82.30;;;;;;4021779;29;20058;-80
2023/12/02 11:13:55;;;;;;;20.77;11.90;;;1.20;82.60;;;;;;4021851;29;20086;-78
2023/12/02 11:16:20;;;;;;;20.90;11.88;;;1.20;81.90;;;;;;4023449;29;20136;-82
2023/12/02 11:18:34;;;;;;;17.83;10.80;;;1.20;83.20;;;;;;4021117;29;20064;-83
2023/12/02 11:20:44;;;;;;;18.08;11.00;;;1.20;82.20;;;;;;4021800;29;20049;-80
2023/12/02 11:23:22;;;;;;;20.02;10.85;;;1.20;81.70;;;;;;4021957;29;20110;-84
2023/12/02 11:25:40;;;;;;;19.05;11.25;;;1.20;81.60;;;;;;4017085;29;20400;-80
2023/12/02 11:27:57;;;;;;;19.60;11.30;;;1.20;81.50;;;;;;4013208;29;20057;-85
2023/12/02 11:30:15;;;;;;;21.17;11.77;;;1.10;82.00;;;;;;4024674;29;20114;-82
2023/12/02 11:32:32;;;;;;;20.67;12.48;;;1.10;82.30;;;;;;4017751;29;20074;-84
2023/12/02 11:34:50;;;;;;;20.85;12.80;;;1.20;82.60;;;;;;4022433;29;20049;-84
2023/12/02 11:37:06;;;;;;;21.33;12.25;;;1.10;82.50;;;;;;4023574;29;20491;-83
2023/12/02 11:39:18;;;;;;;20.88;12.02;;;1.10;83.10;;;;;;4023518;29;20527;-83
2023/12/02 11:41:30;;;;;;;20.65;11.68;;;1.00;82.50;;;;;;4007489;29;20503;-83
2023/12/02 11:43:44;;;;;;;18.35;11.48;;;1.00;83.00;;;;;;4024381;29;20057;-85
2023/12/02 11:45:55;;;;;;;20.10;12.02;;;1.00;81.90;;;;;;4021202;29;20199;-83
2023/12/02 11:48:42;;;;;;;18.45;10.18;;;1.00;81.70;;;;;;4025208;29;20503;-86
2023/12/02 11:51:08;;;;;;;18.70;11.23;;;0.90;80.50;;;;;;4022674;29;20543;-84
2023/12/02 11:53:26;;;;;;;17.52;10.27;;;1.00;81.00;;;;;;4001621;29;20054;-83
2023/12/02 11:55:36;;;;;;;16.45;9.88;;;1.00;80.10;;;;;;4023639;29;20054;-80
2023/12/02 11:57:57;;;;;;;16.13;10.23;;;1.00;80.10;;;;;;4024298;29;20057;-80
2023/12/02 12:00:08;;;;;;;17.73;10.00;;;1.00;80.40;;;;;;4024285;29;20056;-83
2023/12/02 12:02:23;;;;;;;19.45;11.70;;;1.00;80.70;;;;;;4037712;29;20105;-82
2023/12/02 12:05:13;;;;;;;20.27;11.98;;;0.90;82.60;;;;;;4039896;29;20411;-82
2023/12/02 12:07:30;;;;;;;19.25;11.63;;;0.90;82.40;;;;;;4031821;29;20487;-83
2023/12/02 12:09:50;;;;;;;20.50;11.60;;;0.80;82.10;;;;;;4022930;29;21509;-84
2023/12/02 12:11:55;;;;;;;20.63;12.52;;;0.90;82.30;;;;;;4028427;29;20106;-83
2023/12/02 12:13:59;;;;;;;21.00;12.30;;;1.00;82.30;;;;;;4030335;29;20053;-83
2023/12/02 12:16:01;;;;;;;21.40;12.00;;;1.10;83.10;;;;;;4028971;29;20077;-84
2023/12/02 12:18:04;;;;;;;21.85;12.48;;;1.10;82.50;;;;;;4023852;29;20061;-81
2023/12/02 12:20:19;;;;;;;21.08;12.00;;;1.10;81.80;;;;;;4023949;29;20061;-84
2023/12/02 12:22:21;;;;;;;18.13;11.13;;;1.20;82.10;;;;;;4023737;29;20144;-83
2023/12/02 12:24:23;;;;;;;16.65;9.95;;;1.10;81.70;;;;;;4023657;29;20461;-84
2023/12/02 12:26:24;;;;;;;17.45;10.30;;;1.10;80.40;;;;;;4023046;29;20053;-82
2023/12/02 12:28:26;;;;;;;21.30;11.27;;;1.10;80.40;;;;;;4023551;29;20109;-83
2023/12/02 12:30:43;;;;;;;21.83;11.43;;;1.10;80.20;;;;;;4023720;29;20054;-84
2023/12/02 12:32:45;;;;;;;18.38;10.90;;;1.10;80.30;;;;;;4023194;29;20058;-84
2023/12/02 12:34:47;;;;;;;16.92;10.07;;;1.10;80.00;;;;;;4022399;29;20062;-82
2023/12/02 12:36:49;;;;;;;20.00;11.43;;;1.20;80.10;;;;;;4023426;29;20423;-84
2023/12/02 12:38:51;;;;;;;18.83;11.02;;;1.10;80.10;;;;;;4023042;29;20377;-84
2023/12/02 12:40:53;;;;;;;18.40;10.95;;;1.20;80.20;;;;;;4023680;29;20054;-84
2023/12/02 12:42:55;;;;;;;18.77;10.70;;;1.20;80.70;;;;;;4023199;29;20134;-81
2023/12/02 12:44:59;;;;;;;21.45;11.57;;;1.20;80.60;;;;;;4023311;29;20053;-84
2023/12/02 12:47:03;;;;;;;19.15;11.15;;;1.00;80.70;;;;;;4023354;29;20053;-81
2023/12/02 12:49:06;;;;;;;19.70;11.75;;;1.00;80.80;;;;;;4022184;29;20065;-82
2023/12/02 12:51:08;;;;;;;20.85;12.00;;;0.90;80.90;;;;;;4023310;29;20062;-82
2023/12/02 12:53:11;;;;;;;17.33;11.05;;;0.80;81.50;;;;;;4023220;29;20049;-84
2023/12/02 12:55:18;;;;;;;18.17;11.13;;;0.80;81.70;;;;;;4023442;29;20480;-81
2023/12/02 12:57:35;;;;;;;16.95;10.38;;;0.80;80.90;;;;;;4023218;29;20062;-82
2023/12/02 12:59:37;;;;;;;18.25;9.70;;;0.50;81.30;;;;;;4023379;29;20046;-82
2023/12/02 13:01:50;;;;;;;17.30;9.77;;;0.50;81.90;;;;;;4022589;29;20121;-82
2023/12/02 13:04:05;;;;;;;18.40;10.32;;;0.40;81.90;;;;;;4023574;29;20057;-82
2023/12/02 13:06:14;;;;;;;17.02;10.27;;;0.40;82.60;;;;;;4023131;29;20054;-82
2023/12/02 13:08:25;;;;;;;14.63;9.18;;;0.40;83.10;;;;;;4023167;29;20461;-82
2023/12/02 13:10:32;;;;;;;16.70;9.45;;;0.50;82.30;;;;;;4023056;29;20061;-82
2023/12/02 13:12:37;;;;;;;14.70;9.02;;;0.50;82.00;;;;;;4010908;29;20401;-83
2023/12/02 13:14:46;;;;;;;14.52;8.68;;;0.50;81.80;;;;;;4027760;29;20065;-82
2023/12/02 13:16:48;;;;;;;14.13;8.80;;;0.50;81.80;;;;;;4027093;29;20417;-82
2023/12/02 13:18:53;;;;;;;14.63;8.88;;;0.50;82.20;;;;;;4026131;29;20413;-81
2023/12/02 13:20:55;;;;;;;13.88;8.18;;;0.50;82.60;;;;;;4026749;29;20094;-82
2023/12/02 13:23:03;;;;;;;13.00;8.70;;;0.50;81.70;;;;;;4026951;29;20461;-83
2023/12/02 13:25:13;;;;;;;13.10;8.10;;;0.40;82.10;;;;;;4025219;29;20412;-82
2023/12/02 13:27:37;;;;;;;14.93;8.45;;;0.40;82.30;;;;;;4027615;29;20077;-84
2023/12/02 13:29:39;;;;;;;14.80;8.73;;;0.30;81.80;;;;;;4028359;29;20483;-82
2023/12/02 13:31:41;;;;;;;15.10;9.77;;;0.40;82.60;;;;;;4023345;29;20112;-82
2023/12/02 13:33:56;;;;;;;17.70;10.15;;;0.40;82.90;;;;;;4024993;29;20053;-81
2023/12/02 13:36:07;;;;;;;18.65;11.65;;;0.50;83.10;;;;;;4025226;29;20057;-77
2023/12/02 13:38:20;;;;;;;17.40;11.07;;;0.50;83.50;;;;;;4024422;29;20053;-79
2023/12/02 13:40:30;;;;;;;15.27;9.88;;;0.50;83.20;;;;;;4023756;29;20114;-82
2023/12/02 13:42:38;;;;;;;15.80;10.40;;;0.50;83.00;;;;;;4012463;29;20082;-83
2023/12/02 13:44:41;;;;;;;15.43;9.13;;;0.40;82.50;;;;;;4012213;29;20085;-84
2023/12/02 13:46:59;;;;;;;16.15;10.85;;;0.30;82.10;;;;;;4019490;29;20049;-82
2023/12/02 13:49:12;;;;;;;17.35;10.73;;;0.30;83.00;;;;;;4025060;29;20085;-81
2023/12/02 13:51:27;;;;;;;16.13;9.95;;;0.40;83.10;;;;;;4027381;29;20086;-83
2023/12/02 13:53:37;;;;;;;15.90;9.52;;;0.30;82.80;;;;;;4025896;29;20167;-82
2023/12/02 13:56:03;;;;;;;15.68;9.02;;;0.30;82.00;;;;;;4027262;29;20098;-84
2023/12/02 13:58:14;;;;;;;15.02;9.18;;;0.30;81.90;;;;;;4023153;29;20072;-81
2023/12/02 14:00:24;;;;;;;17.52;10.10;;;0.30;81.80;;;;;;4023485;29;20049;-84
2023/12/02 14:02:39;;;;;;;14.05;8.40;;;0.40;82.20;;;;;;4010147;29;20517;-81
2023/12/02 14:04:55;;;;;;;14.68;9.10;;;0.40;81.50;;;;;;4023298;29;20090;-83
2023/12/02 14:07:05;;;;;;;14.48;8.98;;;0.30;81.70;;;;;;4012211;29;20059;-83
2023/12/02 14:09:09;;;;;;;15.13;9.05;;;0.30;81.50;;;;;;3992809;29;20060;-83
2023/12/02 14:11:16;;;;;;;14.30;8.23;;;0.30;81.80;;;;;;3995439;29;20057;-84
2023/12/02 14:13:33;;;;;;;13.73;8.82;;;0.20;81.40;;;;;;3994616;29;20501;-84
2023/12/02 14:15:59;;;;;;;13.63;8.60;;;0.20;81.80;;;;;;3978537;29;20059;-84
2023/12/02 14:18:26;;;;;;;14.57;9.05;;;0.30;81.70;;;;;;3982356;29;20142;-84
2023/12/02 14:20:37;;;;;;;13.48;8.60;;;0.20;81.10;;;;;;4008974;29;20054;-84
2023/12/02 14:23:12;;;;;;;12.40;7.72;;;0.10;81.60;;;;;;4008181;29;20057;-83
2023/12/02 14:25:52;;;;;;;13.05;7.82;;;0.10;81.10;;;;;;4008776;29;20058;-83
2023/12/02 14:28:27;;;;;;;14.80;9.20;;;0.20;81.00;;;;;;3995647;29;20057;-82
2023/12/02 14:30:53;;;;;;;13.23;8.02;;;0.10;81.50;;;;;;4008779;29;20489;-81
2023/12/02 14:33:20;;;;;;;13.05;8.30;;;0.10;80.70;;;;;;4008416;29;20050;-80
2023/12/02 14:35:43;;;;;;;13.85;7.85;;;0.00;80.70;;;;;;4008702;29;20104;-82
2023/12/02 14:38:30;;;;;;;13.38;7.43;;;0.00;80.50;;;;;;4007711;29;20983;-81
2023/12/02 14:40:43;;;;;;;14.07;8.15;;;-0.10;81.00;;;;;;4008346;29;20232;-80
2023/12/02 14:43:11;;;;;;;17.52;9.63;;;0.00;81.30;;;;;;4007956;29;20454;-81
2023/12/02 14:45:13;;;;;;;14.13;7.85;;;0.00;80.90;;;;;;4003428;29;20062;-82
2023/12/02 14:47:16;;;;;;;13.48;7.47;;;-0.10;81.20;;;;;;4003575;29;20145;-81
2023/12/02 14:49:18;;;;;;;11.90;7.45;;;-0.20;81.10;;;;;;3997719;29;20251;-80
2023/12/02 14:51:22;;;;;;;12.63;7.80;;;-0.10;81.00;;;;;;4002964;29;20454;-80
2023/12/02 14:53:36;;;;;;;14.13;7.53;;;-0.20;80.40;;;;;;3996973;29;20049;-80
2023/12/02 14:55:39;;;;;;;11.57;7.10;;;-0.30;80.50;;;;;;4006504;29;20496;-80
2023/12/02 14:57:41;;;;;;;12.68;8.10;;;-0.30;80.90;;;;;;4006523;29;20054;-81
2023/12/02 14:59:44;;;;;;;12.57;7.82;;;-0.30;81.10;;;;;;4006753;29;20113;-81
2023/12/02 15:01:51;;;;;;;12.18;7.18;;;-0.30;80.70;;;;;;4016969;29;20105;-81
2023/12/02 15:03:53;;;;;;;13.70;7.57;;;-0.30;80.50;;;;;;4022548;29;20053;-82
2023/12/02 15:05:57;;;;;;;12.57;7.45;;;-0.30;80.40;;;;;;4022373;29;20057;-80
2023/12/02 15:08:02;;;;;;;13.45;8.27;;;-0.40;81.10;;;;;;4021943;29;20049;-81
2023/12/02 15:10:06;;;;;;;12.82;8.27;;;-0.40;81.20;;;;;;4020997;29;20053;-83
2023/12/02 15:12:08;;;;;;;14.50;8.60;;;-0.30;81.00;;;;;;4022641;29;20088;-80
2023/12/02 15:14:09;;;;;;;14.43;8.38;;;-0.30;81.10;;;;;;4022297;29;20098;-81
2023/12/02 15:16:14;;;;;;;13.35;7.75;;;-0.30;81.00;;;;;;4020985;29;20050;-82
2023/12/02 15:18:21;;;;;;;13.63;7.97;;;-0.40;80.80;;;;;;4021699;29;20073;-80
2023/12/02 15:20:23;;;;;;;13.25;7.65;;;-0.40;79.30;;;;;;4021918;29;20060;-83
2023/12/02 15:22:25;;;;;;;13.25;8.15;;;-0.60;80.30;;;;;;4022983;29;20113;-80
2023/12/02 15:24:28;;;;;;;13.25;8.32;;;-0.60;80.50;;;;;;4013072;29;20045;-82
2023/12/02 15:26:31;;;;;;;14.32;8.27;;;-0.60;80.60;;;;;;4020925;29;20729;-81
2023/12/02 15:28:54;;;;;;;14.80;8.70;;;-0.60;81.00;;;;;;4021015;29;20056;-80
2023/12/02 15:30:57;;;;;;;14.38;8.98;;;-0.60;80.70;;;;;;4023266;29;20053;-82
2023/12/02 15:32:59;;;;;;;14.90;9.57;;;-0.60;80.80;;;;;;4025154;29;20065;-79
2023/12/02 15:35:00;;;;;;;14.35;8.70;;;-0.50;80.90;;;;;;4023845;29;20061;-81
2023/12/02 15:37:03;;;;;;;14.75;8.60;;;-0.60;80.70;;;;;;4022366;29;20093;-81
2023/12/02 15:39:06;;;;;;;14.00;9.02;;;-0.70;80.80;;;;;;4022181;29;20049;-82
2023/12/02 15:41:09;;;;;;;13.60;8.57;;;-0.60;80.60;;;;;;4020576;29;20060;-80
2023/12/02 15:43:11;;;;;;;14.50;8.95;;;-0.70;80.60;;;;;;4008360;29;20469;-82
2023/12/02 15:45:13;;;;;;;14.90;9.10;;;-0.80;80.50;;;;;;4019044;29;20053;-80
2023/12/02 15:47:16;;;;;;;15.32;8.98;;;-0.80;81.40;;;;;;4022900;29;20073;-81
2023/12/02 15:49:22;;;;;;;18.40;9.93;;;-0.80;80.40;;;;;;4023621;29;20128;-84
2023/12/02 15:51:28;;;;;;;15.73;9.38;;;-0.80;80.50;;;;;;4021759;29;20057;-83
2023/12/02 15:53:30;;;;;;;15.10;9.18;;;-0.80;80.60;;;;;;4022634;29;20058;-82
2023/12/02 15:55:32;;;;;;;14.77;9.25;;;-0.80;80.40;;;;;;4022830;29;20057;-82
2023/12/02 15:57:36;;;;;;;16.40;9.50;;;-0.80;79.70;;;;;;4012306;29;20058;-80
2023/12/02 15:59:40;;;;;;;15.25;9.70;;;-0.80;80.50;;;;;;4017126;29;20053;-81
2023/12/02 16:01:45;;;;;;;16.17;9.77;;;-0.80;79.80;;;;;;4021900;29;20530;-83
2023/12/02 16:03:49;;;;;;;15.98;8.90;;;-0.80;79.40;;;;;;4021935;29;20053;-81
2023/12/02 16:05:50;;;;;;;16.90;10.52;;;-0.90;79.60;;;;;;4004491;29;20501;-82
2023/12/02 16:07:51;;;;;;;17.45;10.82;;;-0.80;80.30;;;;;;4021680;29;20053;-81
2023/12/02 16:09:53;;;;;;;19.80;11.05;;;-0.80;80.50;;;;;;4021298;29;20061;-82
2023/12/02 16:11:58;;;;;;;19.95;11.30;;;-0.80;81.10;;;;;;4022073;29;20057;-81
2023/12/02 16:14:05;;;;;;;18.60;11.05;;;-0.70;81.00;;;;;;4021894;29;20065;-81
2023/12/02 16:16:10;;;;;;;17.95;10.48;;;-0.80;80.50;;;;;;4021558;29;20061;-80
2023/12/02 16:18:12;;;;;;;16.17;9.50;;;-0.80;80.70;;;;;;4019909;29;20057;-79
2023/12/02 16:20:14;;;;;;;17.10;9.95;;;-0.80;79.30;;;;;;4021118;29;20895;-82
2023/12/02 16:22:17;;;;;;;16.35;10.02;;;-0.80;79.50;;;;;;4021941;29;20113;-86
2023/12/02 16:24:20;;;;;;;16.40;9.55;;;-0.80;79.80;;;;;;4022985;29;20065;-84
2023/12/02 16:26:21;;;;;;;17.13;10.20;;;-0.70;79.60;;;;;;4021567;29;20057;-84
2023/12/02 16:28:23;;;;;;;16.83;9.73;;;-0.70;79.70;;;;;;4021816;29;20125;-84
2023/12/02 16:30:26;;;;;;;14.90;9.30;;;-0.80;79.60;;;;;;4023267;29;20058;-85
2023/12/02 16:32:29;;;;;;;17.15;9.70;;;-0.80;79.00;;;;;;4023235;29;20057;-86
2023/12/02 16:34:33;;;;;;;18.25;10.55;;;-0.70;79.30;;;;;;4023094;29;20050;-87
2023/12/02 16:36:35;;;;;;;16.45;9.20;;;-0.60;79.80;;;;;;4017599;29;20081;-83
2023/12/02 16:38:40;;;;;;;12.75;7.50;;;-0.70;78.60;;;;;;4020725;29;20053;-79
2023/12/02 16:40:51;;;;;;;13.43;7.75;;;-0.80;77.50;;;;;;4010061;29;20056;-82
2023/12/02 16:42:53;;;;;;;12.30;7.35;;;-0.90;77.80;;;;;;4013249;29;20095;-82
2023/12/02 16:44:57;;;;;;;12.55;7.65;;;-1.00;77.70;;;;;;4018838;29;20054;-83
2023/12/02 16:47:00;;;;;;;13.15;7.63;;;-0.90;77.70;;;;;;4010512;29;20053;-82
2023/12/02 16:49:03;;;;;;;12.73;7.70;;;-0.90;78.10;;;;;;4021438;29;20049;-84
2023/12/02 16:51:07;;;;;;;13.32;7.63;;;-0.90;78.50;;;;;;4009663;29;21122;-79
2023/12/02 16:53:09;;;;;;;15.27;8.52;;;-0.80;79.10;;;;;;4017855;29;20061;-79
2023/12/02 16:55:14;;;;;;;14.82;8.90;;;-0.80;78.80;;;;;;4011928;29;20050;-79